Terminal Aerodrome Forecast
Issued by NWS

Home | Current Version | Previous Version | Text Only | Print | Product List | Glossary On
Versions: 1 2 3 4 5 6 7 8 9 10 11 12 13 14 15
631
FTUS46 KPDT 191121
TAFRDM
TAF
KRDM 191121Z 1912/2012 18007KT P6SM SCT070 BKN100
     FM191800 17008KT P6SM SCT040 BKN100=

USA.gov is the U.S. government's official web portal to all federal, state and local government web resources and services.